SLCB/CBB METAR and TAF weather

Enter ICAO airport designator
Station Type Date Time Source
SLCB METAR 2022/05/23 14:00 UTC NOAA

SLCB 231400Z 29003KT 5000 FU NSC 15/00 Q1027


Station Type Date Time Source
SLCB Decoded METAR 2022/05/23 14:00 UTC NOAA

Cochabamba, Bolivia (SLCB) 17-25S 066-11W 2570M
May 23, 2022 - 10:00 AM EDT / 2022.05.23 1400 UTC
Wind: from the WNW (290 degrees) at 3 MPH (3 KT):0
Visibility: 3 mile(s):0
Weather: smoke
Temperature: 59 F (15 C)
Dew Point: 32 F (0 C)
Relative Humidity: 35%
Pressure (altimeter): 30.33 in. Hg (1027 hPa)
ob: SLCB 231400Z 29003KT 5000 FU NSC 15/00 Q1027
cycle: 14

Station Type Date Time Source
SLCB TAF 2022/05/23 12:48 UTC NOAA

TAF TAF SLCB 231000Z 2312/2412 00000KT 9999 NSC TX26/2319Z TN03/2411Z
BECMG 2314/2316 24010KT
TEMPO 2323/2402 12010KT

Example: see airport list